Time;durP1;ratioP1;P1;durP2;ratioP2;P2;SDS_P1;SDS_P2;PMS_P1;PMS_P2;Temp;Humidity;BMP_temperature;BMP_pressure;BME280_temperature;BME280_humidity;BME280_pressure;Samples;Min_cycle;Max_cycle;Signal;HPM_P1;HPM_P2
2022/10/04 00:01:48;;;;;;;15.77;14.07;;;24.90;99.90;;;;;;5095945;28;20270;-85
2022/10/04 00:04:26;;;;;;;16.37;14.60;;;24.90;99.90;;;;;;5096088;28;20210;-85
2022/10/04 00:07:04;;;;;;;20.70;15.97;;;25.00;99.90;;;;;;5088012;28;20207;-85
2022/10/04 00:09:43;;;;;;;17.10;15.00;;;24.90;99.90;;;;;;5081496;28;20206;-85
2022/10/04 00:12:21;;;;;;;17.40;15.67;;;24.90;99.90;;;;;;5071366;28;20231;-85
2022/10/04 00:14:54;;;;;;;17.67;15.60;;;24.90;99.90;;;;;;5083753;28;20199;-86
2022/10/04 00:17:30;;;;;;;18.67;16.53;;;24.70;99.90;;;;;;5087345;28;20211;-85
2022/10/04 00:20:05;;;;;;;19.30;17.07;;;24.70;99.90;;;;;;5088504;28;20771;-85
2022/10/04 00:22:37;;;;;;;21.10;17.20;;;24.50;99.90;;;;;;5088959;28;20203;-84
2022/10/04 00:25:20;;;;;;;18.40;16.47;;;24.40;99.90;;;;;;5084527;28;20225;-85
2022/10/04 00:28:18;;;;;;;22.27;18.40;;;24.10;99.90;;;;;;5089691;28;20280;-85
2022/10/04 00:31:21;;;;;;;21.97;19.63;;;24.00;99.90;;;;;;5075950;28;20204;-87
2022/10/04 00:33:54;;;;;;;26.63;20.73;;;23.90;99.90;;;;;;5083843;28;20215;-85
2022/10/04 00:37:00;;;;;;;23.50;19.37;;;23.80;99.90;;;;;;5077625;28;20724;-86
2022/10/04 00:39:43;;;;;;;23.80;19.53;;;23.60;99.90;;;;;;5083995;28;20199;-87
2022/10/04 00:42:38;;;;;;;23.73;19.67;;;23.50;99.90;;;;;;5070911;28;20633;-86
2022/10/04 00:45:26;;;;;;;27.73;22.47;;;23.40;99.90;;;;;;5072909;28;20210;-86
2022/10/04 00:48:06;;;;;;;23.03;20.73;;;23.20;99.90;;;;;;5088878;28;20210;-84
2022/10/04 00:50:40;;;;;;;21.67;19.37;;;23.10;99.90;;;;;;5092099;28;20217;-85
2022/10/04 00:53:38;;;;;;;23.30;20.93;;;23.10;99.90;;;;;;5076749;28;20234;-92
2022/10/04 00:56:15;;;;;;;23.03;19.80;;;23.00;99.90;;;;;;5116409;28;20198;-92
2022/10/04 00:59:20;;;;;;;21.33;19.20;;;22.80;99.90;;;;;;5095032;28;20211;-91
2022/10/04 01:01:55;;;;;;;20.17;18.07;;;22.70;99.90;;;;;;5094662;28;20251;-92
2022/10/04 01:04:34;;;;;;;19.43;16.73;;;22.60;99.90;;;;;;5095842;28;20251;-92
2022/10/04 01:07:07;;;;;;;20.20;15.90;;;22.50;99.90;;;;;;5095505;28;20188;-91
2022/10/04 01:09:47;;;;;;;20.50;15.90;;;22.40;99.90;;;;;;5104772;28;20290;-90
2022/10/04 01:12:38;;;;;;;19.50;16.43;;;22.30;99.90;;;;;;5093774;28;20821;-91
2022/10/04 01:15:26;;;;;;;20.23;16.67;;;22.20;99.90;;;;;;5093745;28;20209;-91
2022/10/04 01:18:33;;;;;;;18.57;16.57;;;22.10;99.90;;;;;;5080668;28;20360;-91
2022/10/04 01:21:08;;;;;;;23.93;17.63;;;21.90;99.90;;;;;;5062265;28;20215;-92
2022/10/04 01:23:44;;;;;;;21.17;18.30;;;21.90;99.90;;;;;;5105917;28;20282;-91
2022/10/04 01:26:37;;;;;;;19.83;17.60;;;21.70;99.90;;;;;;5075181;28;20576;-92
2022/10/04 01:29:12;;;;;;;23.27;19.00;;;21.60;99.90;;;;;;5065909;28;20204;-91
2022/10/04 01:31:45;;;;;;;21.50;18.40;;;21.50;99.90;;;;;;5071383;28;20222;-90
2022/10/04 01:34:18;;;;;;;21.00;17.87;;;21.40;99.90;;;;;;5084123;28;20210;-91
2022/10/04 01:36:51;;;;;;;23.53;17.17;;;21.30;99.90;;;;;;5100669;28;20650;-91
2022/10/04 01:39:26;;;;;;;20.40;16.87;;;21.10;99.90;;;;;;5097681;28;20210;-91
2022/10/04 01:42:01;;;;;;;19.90;17.73;;;21.10;99.90;;;;;;5098597;28;20210;-91
2022/10/04 01:44:37;;;;;;;19.30;17.40;;;21.00;99.90;;;;;;5089784;28;20206;-92
2022/10/04 01:47:13;;;;;;;19.40;17.10;;;20.90;99.90;;;;;;5080451;28;20210;-91
2022/10/04 01:49:47;;;;;;;19.37;17.17;;;20.80;99.90;;;;;;5092383;28;20207;-90
2022/10/04 01:52:23;;;;;;;20.80;17.00;;;20.70;99.90;;;;;;5085179;28;20231;-91
2022/10/04 01:55:04;;;;;;;19.30;17.30;;;20.60;99.90;;;;;;5090473;28;20207;-90
2022/10/04 01:57:39;;;;;;;21.40;17.27;;;20.50;99.90;;;;;;5082267;28;20644;-91
2022/10/04 02:00:13;;;;;;;24.10;16.23;;;20.40;99.90;;;;;;5082000;28;20203;-92
2022/10/04 02:02:51;;;;;;;19.47;17.37;;;20.30;99.90;;;;;;5082222;28;20200;-94
2022/10/04 02:05:30;;;;;;;23.93;17.10;;;20.10;99.90;;;;;;5089084;28;20217;-93
2022/10/04 02:08:06;;;;;;;19.93;16.57;;;20.00;99.90;;;;;;5089117;28;20207;-92
2022/10/04 02:10:40;;;;;;;21.33;16.23;;;19.90;99.90;;;;;;5087675;28;20207;-94
2022/10/04 02:13:17;;;;;;;19.10;17.07;;;19.80;99.90;;;;;;5088232;28;20284;-93
2022/10/04 02:15:49;;;;;;;18.90;17.00;;;19.80;99.90;;;;;;5107013;28;20228;-93
2022/10/04 02:18:22;;;;;;;20.67;16.67;;;19.70;99.90;;;;;;5104567;28;20211;-92
2022/10/04 02:20:56;;;;;;;21.17;16.60;;;19.60;99.90;;;;;;5089345;28;20251;-94
2022/10/04 02:23:28;;;;;;;19.40;17.30;;;19.50;99.90;;;;;;5101950;28;20203;-92
2022/10/04 02:26:05;;;;;;;21.13;17.03;;;19.40;99.90;;;;;;5086436;28;20290;-92
2022/10/04 02:28:37;;;;;;;23.13;17.60;;;19.30;99.90;;;;;;5078584;28;20203;-92
2022/10/04 02:34:01;;;;;;;19.90;17.73;;;19.20;99.90;;;;;;5082729;28;20226;-92
2022/10/04 02:36:32;;;;;;;21.70;16.77;;;19.10;99.90;;;;;;5082387;28;20218;-92
2022/10/04 02:39:06;;;;;;;20.73;17.20;;;19.10;99.90;;;;;;5101520;28;20211;-93
2022/10/04 02:41:44;;;;;;;18.67;16.77;;;19.00;99.90;;;;;;5099991;28;20205;-92
2022/10/04 02:44:19;;;;;;;20.57;16.83;;;19.00;99.90;;;;;;5096499;28;20203;-93
2022/10/04 02:46:56;;;;;;;22.50;17.07;;;18.90;99.90;;;;;;5086471;28;20661;-94
2022/10/04 02:49:32;;;;;;;18.73;16.13;;;18.80;99.90;;;;;;5077902;28;20207;-94
2022/10/04 02:52:08;;;;;;;18.47;16.53;;;18.80;99.90;;;;;;5097496;28;20206;-93
2022/10/04 02:54:45;;;;;;;19.33;17.10;;;18.60;99.90;;;;;;5117265;28;20320;-93
2022/10/04 02:57:22;;;;;;;20.40;17.47;;;18.50;99.90;;;;;;5116677;28;20277;-93
2022/10/04 03:00:02;;;;;;;22.67;16.17;;;18.50;99.90;;;;;;5109285;28;20207;-94
2022/10/04 03:02:34;;;;;;;18.90;16.13;;;18.50;99.90;;;;;;5097600;28;20199;-93
2022/10/04 03:05:09;;;;;;;18.23;15.93;;;18.40;99.90;;;;;;5089283;28;20207;-93
2022/10/04 03:07:41;;;;;;;17.60;15.73;;;18.30;99.90;;;;;;5106810;28;20642;-94
2022/10/04 03:10:14;;;;;;;20.10;16.70;;;18.30;99.90;;;;;;5080637;28;20212;-94
2022/10/04 03:12:52;;;;;;;23.23;15.83;;;18.30;99.90;;;;;;5079025;28;20215;-93
2022/10/04 03:15:23;;;;;;;20.37;16.50;;;18.20;99.90;;;;;;5092853;28;20221;-95
2022/10/04 03:17:54;;;;;;;20.03;15.67;;;18.10;99.90;;;;;;5089994;28;20225;-93
2022/10/04 03:20:25;;;;;;;18.47;16.50;;;18.00;99.90;;;;;;5095529;28;20207;-93
2022/10/04 03:23:00;;;;;;;22.63;17.90;;;18.00;99.90;;;;;;5091614;28;20203;-94
2022/10/04 03:25:36;;;;;;;19.00;16.07;;;17.90;99.90;;;;;;5092992;28;20791;-94
2022/10/04 03:28:11;;;;;;;19.20;16.07;;;17.90;99.90;;;;;;5098189;27;20204;-93
2022/10/04 03:30:46;;;;;;;19.10;15.70;;;17.90;99.90;;;;;;5084537;28;20214;-95
2022/10/04 03:33:21;;;;;;;17.33;15.53;;;17.90;99.90;;;;;;5079742;28;20726;-94
2022/10/04 03:35:55;;;;;;;18.50;15.30;;;17.80;99.90;;;;;;5082030;28;20388;-94
2022/10/04 03:38:27;;;;;;;17.67;15.00;;;17.80;99.90;;;;;;5082563;28;20214;-93
2022/10/04 03:41:00;;;;;;;16.83;14.70;;;17.80;99.90;;;;;;5082997;28;20208;-93
2022/10/04 03:43:40;;;;;;;18.20;14.30;;;17.70;99.90;;;;;;5087470;28;20212;-95
2022/10/04 03:46:13;;;;;;;16.97;15.23;;;17.60;99.90;;;;;;5079444;28;20204;-93
2022/10/04 03:48:48;;;;;;;17.33;15.00;;;17.60;99.90;;;;;;5093437;28;20211;-93
2022/10/04 03:51:22;;;;;;;16.10;14.40;;;17.60;99.90;;;;;;5095578;28;20288;-93
2022/10/04 03:53:57;;;;;;;16.93;15.10;;;17.60;99.90;;;;;;5077900;28;20697;-92
2022/10/04 03:56:30;;;;;;;17.27;13.97;;;17.50;99.90;;;;;;5091761;28;20202;-94
2022/10/04 03:59:05;;;;;;;25.00;15.57;;;17.50;99.90;;;;;;5093801;28;20230;-93
2022/10/04 04:01:41;;;;;;;15.83;14.23;;;17.40;99.90;;;;;;5095060;28;20914;-93
2022/10/04 04:04:24;;;;;;;19.40;15.27;;;17.30;99.90;;;;;;5085867;28;20215;-94
2022/10/04 04:07:02;;;;;;;17.23;14.17;;;17.30;99.90;;;;;;5076007;28;20199;-93
2022/10/04 04:09:41;;;;;;;15.97;14.27;;;17.20;99.90;;;;;;5088552;28;20604;-94
2022/10/04 04:12:18;;;;;;;16.07;14.37;;;17.20;99.90;;;;;;5076068;28;20233;-94
2022/10/04 04:14:54;;;;;;;16.73;13.73;;;17.20;99.90;;;;;;5093630;28;20234;-94
2022/10/04 04:17:40;;;;;;;16.33;14.17;;;17.10;99.90;;;;;;5101555;28;20206;-93
2022/10/04 04:20:25;;;;;;;15.87;14.27;;;17.10;99.90;;;;;;5093761;28;20534;-94
2022/10/04 04:23:04;;;;;;;17.47;14.43;;;17.10;99.90;;;;;;5087019;28;20216;-91
2022/10/04 04:25:38;;;;;;;16.10;14.40;;;17.00;99.90;;;;;;5085579;28;20199;-93
2022/10/04 04:28:25;;;;;;;16.83;14.80;;;17.00;99.90;;;;;;5084884;28;20207;-94
2022/10/04 04:31:03;;;;;;;15.43;13.90;;;17.00;99.90;;;;;;5096141;28;20223;-94
2022/10/04 04:33:43;;;;;;;16.10;14.50;;;16.90;99.90;;;;;;5089279;28;20214;-94
2022/10/04 04:36:15;;;;;;;16.70;14.97;;;16.80;99.90;;;;;;5093112;28;20664;-93
2022/10/04 04:41:35;;;;;;;17.07;14.17;;;16.80;99.90;;;;;;5075028;28;20223;-94
2022/10/04 04:44:18;;;;;;;16.87;15.07;;;16.70;99.90;;;;;;5107504;28;20325;-94
2022/10/04 04:46:50;;;;;;;16.70;15.00;;;16.70;99.90;;;;;;5074453;28;20207;-93
2022/10/04 04:49:22;;;;;;;16.40;14.63;;;16.70;99.90;;;;;;5075132;28;20235;-93
2022/10/04 04:51:53;;;;;;;16.53;14.57;;;16.60;99.90;;;;;;5074190;28;20211;-94
2022/10/04 04:54:27;;;;;;;16.73;14.93;;;16.60;99.90;;;;;;5075699;28;20235;-93
2022/10/04 04:56:58;;;;;;;19.67;15.90;;;16.50;99.90;;;;;;5075083;28;20700;-94
2022/10/04 04:59:30;;;;;;;18.03;15.23;;;16.50;99.90;;;;;;5100832;28;20214;-93
2022/10/04 05:02:03;;;;;;;17.37;14.93;;;16.60;99.90;;;;;;5094618;28;20213;-92
2022/10/04 05:04:35;;;;;;;17.40;15.60;;;16.50;99.90;;;;;;5095827;28;20206;-93
2022/10/04 05:07:15;;;;;;;18.40;15.47;;;16.40;99.90;;;;;;5075276;28;20207;-93
2022/10/04 05:09:46;;;;;;;18.03;16.00;;;16.40;99.90;;;;;;5078218;28;20203;-93
2022/10/04 05:12:21;;;;;;;17.07;15.27;;;16.40;99.90;;;;;;5078866;28;20207;-93
2022/10/04 05:14:54;;;;;;;17.77;15.87;;;16.40;99.90;;;;;;5089491;28;20233;-92
2022/10/04 05:17:32;;;;;;;19.37;15.87;;;16.40;99.90;;;;;;5084006;28;20203;-88
2022/10/04 05:20:05;;;;;;;21.00;16.37;;;16.30;99.90;;;;;;5084104;28;20215;-92
2022/10/04 05:22:37;;;;;;;19.57;16.73;;;16.30;99.90;;;;;;5076397;28;20295;-93
2022/10/04 05:25:11;;;;;;;18.93;16.83;;;16.30;99.90;;;;;;5085288;28;20200;-93
2022/10/04 05:27:45;;;;;;;19.47;17.30;;;16.20;99.90;;;;;;5099927;28;20206;-94
2022/10/04 05:30:27;;;;;;;19.70;17.03;;;16.20;99.90;;;;;;5097749;28;20214;-93
2022/10/04 05:33:02;;;;;;;21.10;18.50;;;16.20;99.90;;;;;;5098854;28;20238;-93
2022/10/04 05:35:49;;;;;;;20.67;17.23;;;16.20;99.90;;;;;;5099689;28;20229;-92
2022/10/04 05:38:30;;;;;;;21.47;19.17;;;16.20;99.90;;;;;;5098184;28;20218;-94
2022/10/04 05:41:07;;;;;;;22.13;17.37;;;16.10;99.90;;;;;;5098927;28;20691;-93
2022/10/04 05:43:46;;;;;;;20.90;17.07;;;16.10;99.90;;;;;;5098585;28;20219;-92
2022/10/04 05:46:22;;;;;;;22.03;17.50;;;16.10;99.90;;;;;;5104128;28;20278;-92
2022/10/04 05:49:00;;;;;;;18.60;16.53;;;16.10;99.90;;;;;;5098711;28;20214;-93
2022/10/04 05:51:36;;;;;;;21.07;18.30;;;16.10;99.90;;;;;;5102559;28;20216;-94
2022/10/04 05:54:11;;;;;;;21.90;17.70;;;16.10;99.90;;;;;;5098351;28;20210;-93
2022/10/04 05:57:11;;;;;;;20.60;17.83;;;16.00;99.90;;;;;;5099463;28;20207;-94
2022/10/04 06:00:12;;;;;;;18.80;16.33;;;16.00;99.90;;;;;;5094665;28;20290;-93
2022/10/04 06:03:16;;;;;;;23.73;16.90;;;16.00;99.90;;;;;;5083543;28;20289;-93
2022/10/04 06:05:55;;;;;;;18.47;16.47;;;15.90;99.90;;;;;;5081447;28;20203;-92
2022/10/04 06:08:37;;;;;;;19.17;17.07;;;15.90;99.90;;;;;;5087316;28;20207;-93
2022/10/04 06:11:19;;;;;;;20.30;17.27;;;15.90;99.90;;;;;;5097929;28;20214;-94
2022/10/04 06:14:19;;;;;;;19.43;17.30;;;15.90;99.90;;;;;;5109214;28;20306;-93
2022/10/04 06:17:19;;;;;;;19.33;16.80;;;15.90;99.90;;;;;;5116362;28;20219;-92
2022/10/04 06:20:06;;;;;;;17.57;15.73;;;15.90;99.90;;;;;;5105131;28;20203;-93
2022/10/04 06:22:46;;;;;;;18.43;16.40;;;15.80;99.90;;;;;;5095594;28;20688;-93
2022/10/04 06:25:25;;;;;;;18.00;16.17;;;15.80;99.90;;;;;;5080487;28;20215;-92
2022/10/04 06:28:14;;;;;;;18.27;15.70;;;15.80;99.90;;;;;;5083308;28;20221;-93
2022/10/04 06:31:00;;;;;;;18.80;16.17;;;15.70;99.90;;;;;;5088832;28;20662;-92
2022/10/04 06:33:43;;;;;;;20.27;16.53;;;15.70;99.90;;;;;;5079206;28;20212;-94
2022/10/04 06:36:43;;;;;;;19.47;16.60;;;15.70;99.90;;;;;;5092083;28;20231;-92
2022/10/04 06:39:48;;;;;;;19.33;16.23;;;15.70;99.90;;;;;;5097223;28;20578;-91
2022/10/04 06:42:51;;;;;;;20.40;15.87;;;15.60;99.90;;;;;;5076799;28;20269;-94
2022/10/04 06:45:35;;;;;;;21.57;16.87;;;15.60;99.90;;;;;;5084396;28;20543;-93
2022/10/04 06:48:30;;;;;;;20.20;16.73;;;15.60;99.90;;;;;;5076327;28;20233;-93
2022/10/04 06:51:11;;;;;;;20.40;17.63;;;15.50;99.90;;;;;;5092097;28;20218;-93
2022/10/04 06:53:55;;;;;;;24.33;17.77;;;15.50;99.90;;;;;;5076821;28;20204;-93
2022/10/04 06:56:45;;;;;;;22.83;17.67;;;15.50;99.90;;;;;;5075935;28;20242;-94
2022/10/04 06:59:37;;;;;;;19.33;16.63;;;15.40;99.90;;;;;;5076062;28;20212;-92
2022/10/04 07:02:16;;;;;;;21.53;18.20;;;15.40;99.90;;;;;;5081682;28;20210;-93
2022/10/04 07:04:53;;;;;;;20.17;17.43;;;15.30;99.90;;;;;;5107784;28;20247;-93
2022/10/04 07:07:43;;;;;;;20.73;17.67;;;15.30;99.90;;;;;;5081887;28;20203;-93
2022/10/04 07:10:32;;;;;;;21.50;18.47;;;15.20;99.90;;;;;;5096770;28;20253;-93
2022/10/04 07:13:32;;;;;;;19.97;17.43;;;15.10;99.90;;;;;;5091913;28;20207;-92
2022/10/04 07:16:11;;;;;;;21.87;18.03;;;15.10;99.90;;;;;;5095666;28;20663;-93
2022/10/04 07:18:49;;;;;;;22.67;18.00;;;15.10;99.90;;;;;;5075674;28;20215;-92
2022/10/04 07:21:25;;;;;;;20.50;17.87;;;15.10;99.90;;;;;;5075855;28;20222;-93
2022/10/04 07:24:00;;;;;;;20.40;18.17;;;15.10;99.90;;;;;;5091096;28;20205;-92
2022/10/04 07:26:38;;;;;;;19.80;17.70;;;15.00;99.90;;;;;;5114185;28;20210;-93
2022/10/04 07:29:23;;;;;;;20.07;17.83;;;15.00;99.90;;;;;;5117105;28;20206;-92
2022/10/04 07:32:09;;;;;;;21.83;17.90;;;14.90;99.90;;;;;;5109187;28;20549;-92
2022/10/04 07:34:46;;;;;;;21.63;17.43;;;14.90;99.90;;;;;;5095501;28;20286;-93
2022/10/04 07:37:19;;;;;;;20.60;18.23;;;14.80;99.90;;;;;;5108836;28;20235;-94
2022/10/04 07:39:57;;;;;;;20.23;17.77;;;14.80;99.90;;;;;;5103324;28;20190;-92
2022/10/04 07:42:32;;;;;;;20.93;17.27;;;14.80;99.90;;;;;;5095021;28;20231;-93
2022/10/04 07:45:16;;;;;;;21.70;16.83;;;14.70;99.90;;;;;;5102905;28;20215;-94
2022/10/04 07:47:49;;;;;;;19.37;16.97;;;14.70;99.90;;;;;;5093544;28;20218;-93
2022/10/04 07:50:30;;;;;;;20.30;17.47;;;14.60;99.90;;;;;;5118819;28;20209;-92
2022/10/04 07:53:05;;;;;;;19.97;16.33;;;14.60;99.90;;;;;;5118661;28;20244;-93
2022/10/04 07:55:55;;;;;;;18.53;15.77;;;14.60;99.90;;;;;;5112612;28;20684;-91
2022/10/04 07:58:47;;;;;;;17.43;15.63;;;14.60;99.90;;;;;;5096254;28;20289;-92
2022/10/04 08:01:27;;;;;;;18.03;15.77;;;14.50;99.90;;;;;;5093973;28;20203;-91
2022/10/04 08:04:15;;;;;;;18.93;15.33;;;14.50;99.90;;;;;;5094762;28;20209;-92
2022/10/04 08:06:57;;;;;;;16.70;14.90;;;14.40;99.90;;;;;;5094188;28;20207;-93
2022/10/04 08:09:53;;;;;;;18.30;14.97;;;14.30;99.90;;;;;;5079095;28;20206;-93
2022/10/04 08:12:31;;;;;;;16.67;14.67;;;14.30;99.90;;;;;;5091836;28;20671;-92
2022/10/04 08:15:20;;;;;;;18.93;14.30;;;14.30;99.90;;;;;;5092606;28;20206;-93
2022/10/04 08:18:01;;;;;;;16.43;14.17;;;14.20;99.90;;;;;;5082438;28;20213;-93
2022/10/04 08:20:45;;;;;;;15.53;13.83;;;14.20;99.90;;;;;;5095203;28;20221;-93
2022/10/04 08:23:57;;;;;;;16.17;14.23;;;14.20;99.90;;;;;;5094564;28;20221;-93
2022/10/04 08:26:51;;;;;;;15.40;13.83;;;14.10;99.90;;;;;;5093237;28;20586;-92
2022/10/04 08:29:42;;;;;;;16.30;14.60;;;14.10;99.90;;;;;;5074750;28;20282;-92
2022/10/04 08:32:28;;;;;;;18.03;13.83;;;14.00;99.90;;;;;;5074212;28;20236;-93
2022/10/04 08:35:29;;;;;;;15.37;13.73;;;14.00;99.90;;;;;;5084117;28;20207;-92
2022/10/04 08:38:17;;;;;;;16.17;14.40;;;14.00;99.90;;;;;;5087884;28;20203;-93
2022/10/04 08:41:29;;;;;;;17.60;15.73;;;13.90;99.90;;;;;;5074196;28;20199;-93
2022/10/04 08:44:35;;;;;;;17.30;14.47;;;13.90;99.90;;;;;;5092296;28;20205;-93
2022/10/04 08:47:42;;;;;;;17.70;15.73;;;13.80;99.90;;;;;;5065959;28;20209;-93
2022/10/04 08:50:40;;;;;;;17.70;15.17;;;13.80;99.90;;;;;;5114805;28;20224;-93
2022/10/04 08:53:42;;;;;;;18.50;15.77;;;13.80;99.90;;;;;;5114474;28;20210;-92
2022/10/04 08:56:39;;;;;;;18.47;15.77;;;13.80;99.90;;;;;;5114817;28;20312;-92
2022/10/04 08:59:27;;;;;;;19.20;15.70;;;13.90;99.90;;;;;;5079019;28;20290;-92
2022/10/04 09:02:32;;;;;;;18.87;16.40;;;13.90;99.90;;;;;;5093330;28;20332;-92
2022/10/04 09:05:37;;;;;;;18.73;16.07;;;14.00;99.90;;;;;;5094767;28;20207;-93
2022/10/04 09:08:44;;;;;;;21.00;16.70;;;14.00;99.90;;;;;;5084724;28;20242;-94
2022/10/04 09:11:42;;;;;;;19.87;16.10;;;14.00;99.90;;;;;;5074667;28;20207;-92
2022/10/04 09:14:34;;;;;;;20.20;16.40;;;14.00;99.90;;;;;;5073983;28;20203;-93
2022/10/04 09:17:20;;;;;;;18.30;15.83;;;14.10;99.90;;;;;;5108825;28;20226;-92
2022/10/04 09:20:10;;;;;;;17.40;15.60;;;14.10;99.90;;;;;;5117132;28;20214;-93
2022/10/04 09:23:21;;;;;;;20.00;16.07;;;14.10;99.90;;;;;;5115325;28;20213;-92
2022/10/04 09:26:06;;;;;;;17.33;15.53;;;14.10;99.90;;;;;;5116156;28;20198;-91
2022/10/04 09:29:09;;;;;;;17.90;16.10;;;14.00;99.90;;;;;;5115559;28;20221;-92
2022/10/04 09:32:08;;;;;;;17.37;14.50;;;14.00;99.90;;;;;;5115927;28;20678;-93
2022/10/04 09:34:51;;;;;;;18.20;15.67;;;14.00;99.90;;;;;;5115103;28;20698;-93
2022/10/04 09:38:00;;;;;;;17.73;15.30;;;13.90;99.90;;;;;;5114566;28;20238;-93
2022/10/04 09:41:05;;;;;;;22.50;14.80;;;13.90;99.90;;;;;;5075167;28;20660;-92
2022/10/04 09:44:12;;;;;;;20.77;15.00;;;13.90;99.90;;;;;;5116450;28;20209;-93
2022/10/04 09:47:07;;;;;;;22.53;16.43;;;14.00;99.90;;;;;;5105568;28;20202;-92
2022/10/04 09:50:16;;;;;;;18.90;15.77;;;13.90;99.90;;;;;;5119778;28;20209;-92
2022/10/04 09:52:56;;;;;;;18.40;15.57;;;13.80;99.90;;;;;;5093832;28;20560;-92
2022/10/04 09:55:42;;;;;;;23.50;16.20;;;13.80;99.90;;;;;;5098304;28;20199;-92
2022/10/04 09:58:45;;;;;;;18.43;14.77;;;13.80;99.90;;;;;;5099803;28;20240;-92
2022/10/04 10:01:23;;;;;;;16.60;14.90;;;13.80;99.90;;;;;;5097379;28;20209;-93
2022/10/04 10:04:23;;;;;;;20.27;14.57;;;13.80;99.90;;;;;;5098629;28;20211;-93
2022/10/04 10:07:13;;;;;;;16.87;13.40;;;13.80;99.90;;;;;;5077570;28;20233;-93
2022/10/04 10:16:07;;;;;;;17.63;14.40;;;13.60;99.90;;;;;;5087426;28;20211;-92
2022/10/04 10:18:50;;;;;;;16.67;13.90;;;13.50;99.90;;;;;;5097016;28;20752;-93
2022/10/04 10:21:38;;;;;;;14.13;12.70;;;13.40;99.90;;;;;;5097430;28;20218;-93
2022/10/04 10:24:33;;;;;;;16.87;13.23;;;13.40;99.90;;;;;;5085911;28;20219;-93
2022/10/04 10:27:37;;;;;;;14.97;13.37;;;13.30;99.90;;;;;;5080451;28;20213;-94
2022/10/04 10:30:26;;;;;;;18.53;14.10;;;13.30;99.90;;;;;;5097395;28;20213;-92
2022/10/04 10:33:19;;;;;;;17.63;12.83;;;13.20;99.90;;;;;;5095862;28;20528;-93
2022/10/04 10:36:26;;;;;;;16.63;13.87;;;13.20;99.90;;;;;;5106467;28;20297;-92
2022/10/04 10:39:23;;;;;;;14.30;12.57;;;13.20;99.90;;;;;;5107856;28;20205;-93
2022/10/04 10:42:11;;;;;;;14.93;12.50;;;13.10;99.90;;;;;;5091160;28;20218;-91
2022/10/04 10:45:20;;;;;;;14.40;12.50;;;13.10;99.90;;;;;;5097638;28;20213;-92
2022/10/04 10:47:58;;;;;;;14.77;13.13;;;13.10;99.90;;;;;;5086828;28;20202;-91
2022/10/04 10:51:02;;;;;;;15.37;12.37;;;13.00;99.90;;;;;;5077167;28;20218;-91
2022/10/04 10:54:06;;;;;;;14.20;12.70;;;13.00;99.90;;;;;;5070866;28;20212;-92
2022/10/04 10:56:55;;;;;;;19.13;12.53;;;13.00;99.90;;;;;;5076856;28;20210;-92
2022/10/04 11:00:14;;;;;;;14.37;12.87;;;12.90;99.90;;;;;;5076330;28;20653;-92
2022/10/04 11:03:30;;;;;;;15.97;13.03;;;12.90;99.90;;;;;;5075265;28;20211;-93
2022/10/04 11:06:37;;;;;;;14.80;12.30;;;13.00;99.90;;;;;;5076318;28;20307;-91
2022/10/04 11:09:33;;;;;;;20.87;12.63;;;13.00;99.90;;;;;;5073707;28;20208;-92
2022/10/04 11:12:54;;;;;;;16.30;12.97;;;13.00;99.90;;;;;;5075166;28;20227;-91
2022/10/04 11:15:48;;;;;;;15.23;12.63;;;12.90;99.90;;;;;;5076355;28;20208;-92
2022/10/04 11:18:58;;;;;;;13.93;11.97;;;12.90;99.90;;;;;;5078616;28;20231;-93
2022/10/04 11:22:05;;;;;;;14.63;12.53;;;12.80;99.90;;;;;;5117820;28;20228;-93
2022/10/04 11:25:16;;;;;;;17.60;13.23;;;12.80;99.90;;;;;;5114181;28;20229;-93
2022/10/04 11:27:54;;;;;;;17.00;14.47;;;12.80;99.90;;;;;;5096739;28;20309;-93
2022/10/04 11:30:28;;;;;;;16.03;12.73;;;12.70;99.90;;;;;;5096317;28;20202;-91
2022/10/04 11:33:38;;;;;;;21.23;17.80;;;12.70;99.90;;;;;;5095762;28;20297;-92
2022/10/04 11:36:32;;;;;;;15.83;14.13;;;12.80;99.90;;;;;;5086979;28;20557;-93
2022/10/04 11:39:30;;;;;;;18.70;16.63;;;12.90;99.90;;;;;;5073526;28;20250;-91
2022/10/04 11:42:17;;;;;;;23.83;16.77;;;12.90;99.90;;;;;;5074949;28;20785;-93
2022/10/04 11:45:18;;;;;;;19.53;16.37;;;12.90;99.90;;;;;;5076881;28;20212;-93
2022/10/04 11:48:02;;;;;;;21.20;19.00;;;12.80;99.90;;;;;;5093173;28;20345;-93
2022/10/04 11:51:18;;;;;;;22.10;18.97;;;12.90;99.90;;;;;;5117393;28;20310;-93
2022/10/04 11:54:26;;;;;;;19.90;16.43;;;12.90;99.90;;;;;;5113342;28;20630;-92
2022/10/04 11:57:19;;;;;;;20.87;17.87;;;13.00;99.90;;;;;;5111327;28;20215;-92
2022/10/04 12:00:02;;;;;;;19.23;17.30;;;13.00;99.90;;;;;;5092270;28;20207;-92
2022/10/04 12:03:19;;;;;;;20.47;17.97;;;13.00;99.90;;;;;;5075264;28;20564;-93
2022/10/04 12:06:17;;;;;;;21.60;18.47;;;13.00;99.90;;;;;;5079585;28;20196;-93
2022/10/04 12:09:06;;;;;;;26.30;21.87;;;13.10;99.90;;;;;;5080973;28;20207;-93
2022/10/04 12:15:06;;;;;;;27.23;22.43;;;13.40;99.90;;;;;;5081095;28;20199;-93
2022/10/04 12:18:05;;;;;;;26.03;23.27;;;13.50;99.90;;;;;;5113933;28;20230;-93
2022/10/04 12:21:10;;;;;;;26.83;23.80;;;13.60;99.90;;;;;;5118415;28;20680;-91
2022/10/04 12:24:04;;;;;;;28.50;23.50;;;13.70;99.90;;;;;;5118341;28;20206;-92
2022/10/04 12:27:16;;;;;;;28.33;23.23;;;13.70;99.90;;;;;;5084228;28;20678;-93
2022/10/04 12:30:15;;;;;;;25.83;23.13;;;13.80;99.90;;;;;;5111204;28;20202;-92
2022/10/04 12:32:55;;;;;;;29.70;24.43;;;13.80;99.90;;;;;;5116171;28;20289;-92
2022/10/04 12:35:41;;;;;;;28.93;24.40;;;13.80;99.90;;;;;;5091024;28;20242;-93
2022/10/04 12:38:42;;;;;;;30.23;23.97;;;13.90;99.90;;;;;;5077977;28;20242;-91
2022/10/04 12:41:25;;;;;;;27.77;24.50;;;13.90;99.90;;;;;;5080914;28;20306;-92
2022/10/04 12:44:06;;;;;;;32.77;24.37;;;13.90;99.90;;;;;;5075562;28;20245;-93
2022/10/04 12:46:52;;;;;;;26.13;22.87;;;13.90;99.90;;;;;;5083178;28;20243;-90
2022/10/04 12:49:33;;;;;;;28.97;22.73;;;13.90;99.90;;;;;;5097603;28;20272;-93
2022/10/04 12:52:16;;;;;;;29.83;24.13;;;13.90;99.90;;;;;;5112238;28;20234;-91
2022/10/04 12:54:57;;;;;;;70.33;25.20;;;13.90;99.90;;;;;;5113445;28;20270;-92
2022/10/04 12:57:44;;;;;;;25.50;22.73;;;13.80;99.90;;;;;;5105256;28;20551;-93
2022/10/04 13:00:21;;;;;;;25.23;22.13;;;13.80;99.90;;;;;;5087294;28;20202;-93
2022/10/04 13:03:18;;;;;;;65.67;24.00;;;13.80;99.90;;;;;;5107553;28;20295;-93
2022/10/04 13:06:01;;;;;;;75.77;25.93;;;13.80;99.90;;;;;;5106114;28;20209;-93
2022/10/04 13:08:45;;;;;;;31.00;23.57;;;13.80;99.90;;;;;;5107766;28;20251;-92
2022/10/04 13:11:45;;;;;;;32.60;22.17;;;13.80;99.90;;;;;;5116484;28;20255;-92
2022/10/04 13:14:49;;;;;;;48.43;25.30;;;13.80;99.90;;;;;;5114764;28;20226;-93
2022/10/04 13:17:33;;;;;;;49.80;23.13;;;13.80;99.90;;;;;;5101520;28;20221;-92
2022/10/04 13:20:34;;;;;;;27.07;21.00;;;13.80;99.90;;;;;;5098393;28;20576;-93
2022/10/04 13:23:15;;;;;;;42.90;22.53;;;13.80;99.90;;;;;;5095312;28;20663;-93
2022/10/04 13:26:14;;;;;;;77.63;23.40;;;13.80;99.90;;;;;;5095653;28;20562;-93
2022/10/04 13:28:53;;;;;;;43.03;23.40;;;13.70;99.90;;;;;;5087344;28;20199;-93
2022/10/04 13:31:31;;;;;;;35.33;23.30;;;13.70;99.90;;;;;;5098312;28;20210;-93
2022/10/04 13:34:18;;;;;;;51.13;24.37;;;13.70;99.90;;;;;;5078243;28;20215;-92
2022/10/04 13:37:07;;;;;;;98.43;25.97;;;13.70;99.90;;;;;;5078303;28;20293;-93
2022/10/04 13:40:02;;;;;;;34.40;22.50;;;13.70;99.90;;;;;;5078578;28;20263;-91
2022/10/04 13:42:57;;;;;;;82.67;24.97;;;13.70;99.90;;;;;;5096509;28;20229;-92
2022/10/04 13:59:04;;;;;;;25.90;21.10;;;13.60;99.90;;;;;;5001071;27;3347522;-92
2022/10/04 14:02:11;;;;;;;34.90;23.70;;;13.60;99.90;;;;;;5132841;28;20205;-93
2022/10/04 14:05:17;;;;;;;95.47;23.93;;;13.60;99.90;;;;;;5123622;28;20212;-94
2022/10/04 14:08:11;;;;;;;251.00;28.80;;;13.50;99.90;;;;;;5106763;28;20237;-93
2022/10/04 14:11:15;;;;;;;91.60;25.23;;;13.40;99.90;;;;;;5132893;28;20206;-93
2022/10/04 14:14:22;;;;;;;59.13;25.27;;;13.30;99.90;;;;;;5128642;28;20210;-92
2022/10/04 14:17:14;;;;;;;40.47;24.93;;;13.40;99.90;;;;;;5116437;28;20217;-93
2022/10/04 14:20:26;;;;;;;76.13;26.03;;;13.40;99.90;;;;;;5111437;28;20687;-93
2022/10/04 14:23:25;;;;;;;98.63;26.37;;;13.50;99.90;;;;;;5107626;28;20254;-94
2022/10/04 14:26:36;;;;;;;35.90;24.23;;;13.50;99.90;;;;;;5112290;28;20202;-93
2022/10/04 14:29:35;;;;;;;113.73;25.83;;;13.60;99.90;;;;;;5102424;28;20320;-92